Chiloquin, OR (97604)

08:23 AM PDT del 22 Ottobre 2014 (GMT -0700)
RAWS CHILOQUIN OR US | Change Station
CLOSE
Current Station
Stazione meteo personale
Location: Sprague River, OR
Altitudine: 4419 ft
Stazioni meteo nelle vicinanze

Alt. 4419 ft 42.58 °N, 121.89 °W | Updated 27 minutes ago

Pioggia
Pioggia
40 °F
Sembra 40 °F
N
3
Vento Variabile Vento da ESE
Gusts 9.0 mph

Oggi
Massima -- | Minima -- °F
--% Possibilità di precip.
Ieri
Massima -- | Minima -- °F
Precip. -- in
7:28 AM 6:14 PM
Luna calante, 2% visible
Pressione 30.03 in
Visibilità 10.0 miglia
Nuvole Alcuni 6000 ft
Coperto 8000 ft
Raffreddamento del vento 40 °F
Punto di rugiada 37 °F
Umidità 90%
Piovosità 0.01 in
Spessore del manto nevoso 0 in , 0 in
Raggi UV 0 fuori da 12
Polline 2.70 fuori da 12
Qualità dell'aria Non disponibile.
Flu Activity Sporadic
METAR KLMT 221453Z AUTO 00000KT 10SM R32/4500V5500FT -RA FEW060 OVC080 07/03 A3005 RMK AO2 RAB46 SLP169 P0000 60000 T00670033 53004

More Conditions Fewer Conditions

Pressione 30.03 in
Visibilità 10.0 miglia
Nuvole Alcuni 6000 ft
Coperto 8000 ft
Raffreddamento del vento 40 °F
Punto di rugiada 37 °F
Umidità 90%
Piovosità 0.01 in
Spessore del manto nevoso 0 in , 0 in
Raggi UV 0 fuori da 12
Polline 2.70 fuori da 12
Qualità dell'aria Non disponibile.
Flu Activity Sporadic
METAR KLMT 221453Z AUTO 00000KT 10SM R32/4500V5500FT -RA FEW060 OVC080 07/03 A3005 RMK AO2 RAB46 SLP169 P0000 60000 T00670033 53004

More Conditions Fewer Conditions

10-Day Weather Forecast

Almanac

Astronomia

Oct. 22, 2014 Alba Tramonto
Ora attuale 07:28 PDT 18:14 PDT
Crepuscolo civile 07:00 PDT 18:42 PDT
Crepuscolo nautico 06:27 PDT 19:15 PDT
Crepuscolo astronomico 05:54 PDT 19:48 PDT
Luna 06:13 PDT 17:44 PDT
Estensione della luce visibile 11h 42m
Lunghezza del giorno
10h 45m
Tomorrow will be 2m 42s shorter.
Luna calante, 2% of the Moon is Illuminated
Oggi
Luna calante
Ott 23
Nuovo
Ott 30
Primo quarto
Nov 6
Luna piena
Nov 14
Ultimo quarto

Gli estremi di oggi

State Highs State Lows

Community

WunderPhotos

Upload Photos

1,763,949 foto caricate!

Nearby

Profondità neve

Stazione Profondità Altitudine
Sevenmile Marsh 0 in 6200 ft
Cold Springs Camp 0 in 6100 ft
Billie Creek Divide 0 in 5300 ft
Taylor Butte 0 in 5100 ft
Annie Springs 0 in 6020 ft

Attività sismica

Città  Distanza Mag. Data & Ora
Non sono state riportate attività sismiche nelle vicinanze.
Minimo Magnitudo Mostrato è 2.5.

Temperature delle acque costiere

Località Temperatura
Nessun dato dalle stazioni

Stazioni meteo nelle vicinanze